Time;durP1;ratioP1;P1;durP2;ratioP2;P2;SDS_P1;SDS_P2;PMS_P1;PMS_P2;Temp;Humidity;BMP_temperature;BMP_pressure;BME280_temperature;BME280_humidity;BME280_pressure;Samples;Min_cycle;Max_cycle;Signal;HPM_P1;HPM_P2
2024/01/29 00:02:16;;;;;;;2.05;1.20;;;19.90;32.90;;;;;;5093727;28;20382;-57
2024/01/29 00:04:42;;;;;;;1.80;1.10;;;19.90;32.90;;;;;;5094403;28;20126;-56
2024/01/29 00:07:08;;;;;;;2.13;1.40;;;19.90;32.80;;;;;;5093389;28;20367;-56
2024/01/29 00:09:34;;;;;;;2.45;1.20;;;19.80;32.70;;;;;;5094677;28;20389;-58
2024/01/29 00:11:59;;;;;;;1.58;1.15;;;19.80;32.70;;;;;;5075941;28;20058;-54
2024/01/29 00:14:25;;;;;;;2.28;1.30;;;19.80;32.70;;;;;;5094414;28;20036;-57
2024/01/29 00:16:51;;;;;;;2.17;1.27;;;19.80;32.70;;;;;;5093544;28;20054;-58
2024/01/29 00:19:17;;;;;;;1.65;1.17;;;19.80;32.70;;;;;;5094129;28;20374;-57
2024/01/29 00:21:43;;;;;;;2.42;1.40;;;19.80;32.70;;;;;;5074394;28;20094;-58
2024/01/29 00:24:08;;;;;;;1.58;1.10;;;19.80;32.70;;;;;;5094709;28;20363;-57
2024/01/29 00:26:34;;;;;;;2.35;1.30;;;19.80;32.70;;;;;;5093195;28;20018;-55
2024/01/29 00:29:00;;;;;;;2.45;1.38;;;19.80;32.70;;;;;;5094015;28;20039;-57
2024/01/29 00:31:27;;;;;;;2.05;1.17;;;19.80;32.60;;;;;;5093064;28;20073;-58
2024/01/29 00:33:53;;;;;;;1.40;1.13;;;19.80;32.60;;;;;;5094354;28;20027;-57
2024/01/29 00:36:19;;;;;;;1.77;1.15;;;19.80;32.70;;;;;;5093643;28;20024;-56
2024/01/29 00:38:45;;;;;;;1.70;1.27;;;19.80;32.60;;;;;;5093610;28;20020;-54
2024/01/29 00:41:11;;;;;;;1.60;1.00;;;19.80;32.60;;;;;;5092610;28;20046;-57
2024/01/29 00:43:37;;;;;;;1.42;0.90;;;19.80;32.70;;;;;;5090443;28;20079;-57
2024/01/29 00:46:03;;;;;;;1.67;1.23;;;19.80;32.70;;;;;;5093309;28;20063;-58
2024/01/29 00:48:28;;;;;;;1.92;1.30;;;19.80;32.70;;;;;;5093142;28;20043;-57
2024/01/29 00:50:55;;;;;;;2.25;1.33;;;19.80;32.60;;;;;;5093554;28;20047;-57
2024/01/29 00:53:22;;;;;;;1.77;1.20;;;19.80;32.60;;;;;;5075220;28;20024;-56
2024/01/29 00:55:48;;;;;;;1.92;1.13;;;19.80;32.70;;;;;;5090946;28;20158;-59
2024/01/29 00:58:17;;;;;;;2.47;1.30;;;19.70;32.60;;;;;;5074736;28;20110;-57
2024/01/29 01:00:42;;;;;;;2.10;1.10;;;19.80;32.60;;;;;;5093740;28;20044;-55
2024/01/29 01:03:08;;;;;;;1.77;1.13;;;19.80;32.60;;;;;;5092930;28;20056;-57
2024/01/29 01:05:34;;;;;;;2.28;1.20;;;19.70;32.50;;;;;;5093340;28;20020;-58
2024/01/29 01:08:01;;;;;;;1.55;1.08;;;19.70;32.60;;;;;;5092379;28;20024;-56
2024/01/29 01:10:27;;;;;;;1.88;1.30;;;19.70;32.60;;;;;;5092554;28;20085;-57
2024/01/29 01:12:53;;;;;;;1.90;1.20;;;19.70;32.50;;;;;;5092994;28;20047;-55
2024/01/29 01:15:19;;;;;;;1.92;1.33;;;19.70;32.50;;;;;;5092762;28;20016;-58
2024/01/29 01:17:48;;;;;;;1.92;1.27;;;19.70;32.50;;;;;;5092410;28;21572;-58
2024/01/29 01:20:14;;;;;;;1.98;1.23;;;19.70;32.50;;;;;;5092837;28;20237;-58
2024/01/29 01:22:40;;;;;;;2.20;1.20;;;19.70;32.50;;;;;;5092623;28;20099;-55
2024/01/29 01:25:06;;;;;;;3.72;1.73;;;19.70;32.50;;;;;;5093218;28;20075;-56
2024/01/29 01:27:33;;;;;;;1.63;1.02;;;19.70;32.50;;;;;;5092274;28;20492;-58
2024/01/29 01:29:59;;;;;;;2.22;1.20;;;19.70;32.50;;;;;;5092883;28;20078;-58
2024/01/29 01:32:25;;;;;;;1.88;1.20;;;19.70;32.50;;;;;;5092854;28;20036;-55
2024/01/29 01:34:51;;;;;;;2.50;1.35;;;19.70;32.50;;;;;;5093161;28;20085;-59
2024/01/29 01:37:17;;;;;;;2.30;1.40;;;19.70;32.50;;;;;;5093068;28;20394;-58
2024/01/29 01:39:43;;;;;;;3.15;1.50;;;19.70;32.50;;;;;;5091740;28;20039;-56
2024/01/29 01:42:09;;;;;;;2.28;1.23;;;19.70;32.50;;;;;;5091045;28;20059;-57
2024/01/29 01:44:35;;;;;;;1.85;1.25;;;19.70;32.50;;;;;;5072524;28;20028;-58
2024/01/29 01:47:01;;;;;;;2.47;1.35;;;19.60;32.40;;;;;;5072589;28;20382;-56
2024/01/29 01:49:28;;;;;;;2.20;1.33;;;19.70;32.50;;;;;;5072307;28;20060;-54
2024/01/29 01:51:53;;;;;;;2.58;1.20;;;19.60;32.40;;;;;;5072299;28;20036;-58
2024/01/29 01:54:20;;;;;;;2.22;1.15;;;19.60;32.40;;;;;;5069356;28;20111;-58
2024/01/29 01:56:47;;;;;;;1.80;1.15;;;19.60;32.40;;;;;;5072608;28;20024;-56
2024/01/29 01:59:13;;;;;;;1.55;1.10;;;19.60;32.40;;;;;;5072206;28;20035;-56
2024/01/29 02:01:39;;;;;;;2.53;1.48;;;19.60;32.50;;;;;;5072277;28;20383;-60
2024/01/29 02:04:05;;;;;;;2.35;1.35;;;19.70;32.50;;;;;;5052214;28;20032;-58
2024/01/29 02:06:31;;;;;;;1.65;1.10;;;19.60;32.40;;;;;;5071629;28;20063;-58
2024/01/29 02:08:59;;;;;;;2.28;1.25;;;19.60;32.40;;;;;;5071460;28;20102;-58
2024/01/29 02:11:25;;;;;;;2.15;1.30;;;19.60;32.40;;;;;;5071600;28;20112;-57
2024/01/29 02:13:51;;;;;;;2.55;1.23;;;19.60;32.40;;;;;;5071449;28;20460;-56
2024/01/29 02:16:17;;;;;;;1.45;1.00;;;19.60;32.40;;;;;;5071595;28;20033;-55
2024/01/29 02:18:43;;;;;;;2.42;1.20;;;19.60;32.40;;;;;;5070530;28;20419;-56
2024/01/29 02:21:09;;;;;;;2.33;1.40;;;19.60;32.40;;;;;;5071400;28;20040;-60
2024/01/29 02:23:35;;;;;;;1.95;1.25;;;19.60;32.40;;;;;;5072478;28;20025;-56
2024/01/29 02:26:01;;;;;;;1.35;1.00;;;19.60;32.40;;;;;;5076026;28;20091;-59
2024/01/29 02:28:27;;;;;;;2.28;1.10;;;19.60;32.40;;;;;;5075756;28;20119;-57
2024/01/29 02:30:53;;;;;;;1.50;1.10;;;19.60;32.40;;;;;;5075673;28;20465;-58
2024/01/29 02:33:19;;;;;;;1.52;1.10;;;19.50;32.40;;;;;;5076341;28;20035;-57
2024/01/29 02:35:48;;;;;;;2.03;1.33;;;19.60;32.40;;;;;;5075778;28;20025;-59
2024/01/29 02:38:14;;;;;;;3.08;1.25;;;19.60;32.40;;;;;;5076524;28;20103;-55
2024/01/29 02:40:39;;;;;;;1.88;1.08;;;19.50;32.40;;;;;;5076183;28;20132;-57
2024/01/29 02:43:05;;;;;;;2.08;1.15;;;19.60;32.40;;;;;;5084239;28;20101;-54
2024/01/29 02:45:31;;;;;;;1.67;1.13;;;19.50;32.40;;;;;;5116278;28;20034;-59
2024/01/29 02:47:57;;;;;;;1.80;1.10;;;19.60;32.50;;;;;;5115338;28;20027;-56
2024/01/29 02:50:25;;;;;;;1.55;1.10;;;19.50;32.40;;;;;;5116279;28;20020;-58
2024/01/29 02:52:51;;;;;;;1.92;1.30;;;19.50;32.40;;;;;;5116547;28;20039;-58
2024/01/29 02:55:17;;;;;;;1.73;1.23;;;19.50;32.40;;;;;;5114658;28;20038;-55
2024/01/29 02:57:43;;;;;;;1.98;1.25;;;19.50;32.40;;;;;;5115918;28;20020;-56
2024/01/29 03:00:10;;;;;;;1.45;1.20;;;19.50;32.40;;;;;;5116990;28;20015;-58
2024/01/29 03:02:36;;;;;;;2.72;1.48;;;19.50;32.40;;;;;;5115657;28;20034;-58
2024/01/29 03:05:02;;;;;;;2.17;1.20;;;19.50;32.40;;;;;;5115583;28;20024;-58
2024/01/29 03:07:28;;;;;;;2.47;1.35;;;19.50;32.40;;;;;;5097956;28;20027;-57
2024/01/29 03:09:54;;;;;;;1.98;1.33;;;19.50;32.50;;;;;;5097711;28;21711;-55
2024/01/29 03:12:20;;;;;;;1.73;1.20;;;19.50;32.40;;;;;;5115394;28;20047;-55
2024/01/29 03:14:45;;;;;;;1.52;1.30;;;19.50;32.40;;;;;;5115873;28;20328;-58
2024/01/29 03:17:11;;;;;;;2.05;1.10;;;19.50;32.40;;;;;;5115004;28;20038;-55
2024/01/29 03:19:38;;;;;;;2.22;1.27;;;19.50;32.40;;;;;;5116010;28;20395;-57
2024/01/29 03:22:04;;;;;;;1.83;1.17;;;19.50;32.40;;;;;;5115186;28;20023;-59
2024/01/29 03:24:29;;;;;;;1.65;1.17;;;19.50;32.40;;;;;;5116156;28;20034;-54
2024/01/29 03:26:55;;;;;;;2.90;1.48;;;19.50;32.40;;;;;;5116177;28;20354;-56
2024/01/29 03:29:21;;;;;;;1.90;1.30;;;19.40;32.40;;;;;;5097577;28;20035;-57
2024/01/29 03:31:47;;;;;;;2.38;1.30;;;19.50;32.50;;;;;;5115887;28;20035;-58
2024/01/29 03:34:13;;;;;;;2.38;1.50;;;19.50;32.50;;;;;;5114748;28;20042;-55
2024/01/29 03:36:38;;;;;;;1.88;1.30;;;19.40;32.40;;;;;;5115954;28;20462;-55
2024/01/29 03:39:04;;;;;;;2.50;1.30;;;19.50;32.50;;;;;;5115461;28;20047;-51
2024/01/29 03:41:30;;;;;;;2.88;1.50;;;19.40;32.40;;;;;;5097386;28;20024;-57
2024/01/29 03:43:56;;;;;;;2.63;1.48;;;19.40;32.40;;;;;;5114565;28;20457;-56
2024/01/29 03:46:22;;;;;;;2.28;1.38;;;19.40;32.40;;;;;;5097864;28;20044;-56
2024/01/29 03:48:48;;;;;;;1.70;1.10;;;19.40;32.50;;;;;;5114497;28;20043;-59
2024/01/29 03:51:14;;;;;;;1.90;1.10;;;19.40;32.50;;;;;;5115591;28;20123;-59
2024/01/29 03:53:40;;;;;;;2.33;1.17;;;19.40;32.50;;;;;;5114336;28;20358;-55
2024/01/29 03:56:06;;;;;;;1.70;1.30;;;19.40;32.50;;;;;;5097120;28;20411;-57
2024/01/29 03:58:31;;;;;;;1.67;1.33;;;19.40;32.50;;;;;;5114786;28;20358;-56
2024/01/29 04:00:57;;;;;;;1.67;1.00;;;19.40;32.50;;;;;;5096772;28;20024;-58
2024/01/29 04:03:23;;;;;;;1.98;1.23;;;19.40;32.50;;;;;;5114589;28;20116;-57
2024/01/29 04:05:49;;;;;;;2.30;1.30;;;19.40;32.50;;;;;;5114866;28;20032;-58
2024/01/29 04:08:14;;;;;;;1.85;1.10;;;19.40;32.50;;;;;;5114112;28;20027;-54
2024/01/29 04:10:40;;;;;;;1.35;0.90;;;19.40;32.50;;;;;;5097050;28;20043;-56
2024/01/29 04:13:06;;;;;;;1.65;1.05;;;19.40;32.50;;;;;;5114543;28;20102;-58
2024/01/29 04:15:32;;;;;;;2.28;1.35;;;19.40;32.50;;;;;;5095847;28;20024;-57
2024/01/29 04:17:57;;;;;;;2.03;1.20;;;19.40;32.50;;;;;;5113748;28;20020;-57
2024/01/29 04:20:23;;;;;;;2.38;1.42;;;19.40;32.50;;;;;;5113548;28;20027;-57
2024/01/29 04:22:49;;;;;;;2.08;1.38;;;19.40;32.50;;;;;;5114263;28;20026;-57
2024/01/29 04:25:15;;;;;;;1.55;1.20;;;19.40;32.90;;;;;;5115088;28;20035;-60
2024/01/29 04:27:41;;;;;;;1.20;1.00;;;19.40;32.60;;;;;;5113424;28;20477;-55
2024/01/29 04:30:07;;;;;;;1.73;1.25;;;19.40;32.60;;;;;;5114189;28;20024;-56
2024/01/29 04:32:33;;;;;;;2.15;1.25;;;19.40;32.60;;;;;;5113949;28;20127;-57
2024/01/29 04:34:59;;;;;;;3.00;1.60;;;19.40;32.60;;;;;;5095980;28;20107;-52
2024/01/29 04:37:24;;;;;;;1.73;1.10;;;19.40;32.60;;;;;;5114053;28;20034;-58
2024/01/29 04:39:50;;;;;;;2.47;1.15;;;19.30;32.50;;;;;;5114012;28;20051;-56
2024/01/29 04:42:16;;;;;;;1.45;1.10;;;19.30;32.50;;;;;;5095514;28;20177;-55
2024/01/29 04:44:42;;;;;;;2.10;1.30;;;19.40;32.60;;;;;;5113665;28;20202;-55
2024/01/29 04:47:08;;;;;;;2.67;1.02;;;19.30;32.60;;;;;;5110898;28;20472;-58
2024/01/29 04:49:33;;;;;;;2.03;1.10;;;19.30;32.50;;;;;;5114469;28;20023;-57
2024/01/29 04:51:59;;;;;;;1.85;1.30;;;19.30;32.50;;;;;;5114253;28;20123;-54
2024/01/29 04:54:25;;;;;;;1.70;1.20;;;19.30;32.60;;;;;;5114288;28;20156;-58
2024/01/29 04:56:51;;;;;;;1.73;1.10;;;19.30;32.60;;;;;;5112913;28;20092;-57
2024/01/29 04:59:17;;;;;;;2.60;1.55;;;19.30;32.60;;;;;;5096452;28;20039;-56
2024/01/29 05:01:42;;;;;;;2.20;1.30;;;19.30;32.60;;;;;;5113689;28;20046;-55
2024/01/29 05:04:08;;;;;;;1.88;1.27;;;19.30;32.60;;;;;;5114040;28;20376;-58
2024/01/29 05:06:34;;;;;;;1.60;1.00;;;19.20;32.50;;;;;;5113318;28;20031;-54
2024/01/29 05:09:00;;;;;;;2.10;1.30;;;19.30;32.70;;;;;;5094915;28;20407;-58
2024/01/29 05:11:26;;;;;;;1.88;1.10;;;19.30;32.60;;;;;;5114175;28;20481;-54
2024/01/29 05:13:53;;;;;;;2.72;1.35;;;19.20;32.60;;;;;;5113282;28;20020;-58
2024/01/29 05:16:19;;;;;;;2.55;1.25;;;19.30;32.70;;;;;;5113010;28;20037;-59
2024/01/29 05:18:45;;;;;;;1.65;1.30;;;19.30;32.70;;;;;;5111998;28;20020;-57
2024/01/29 05:21:11;;;;;;;2.47;1.20;;;19.30;32.70;;;;;;5113529;28;20035;-57
2024/01/29 05:23:37;;;;;;;1.30;1.00;;;19.30;32.80;;;;;;5114064;28;20122;-57
2024/01/29 05:26:04;;;;;;;1.55;1.05;;;19.30;32.80;;;;;;5113767;28;20119;-54
2024/01/29 05:28:30;;;;;;;2.10;1.50;;;19.20;32.70;;;;;;5113101;28;20484;-55
2024/01/29 05:30:56;;;;;;;2.08;1.30;;;19.30;32.80;;;;;;5113043;28;20036;-58
2024/01/29 05:33:22;;;;;;;2.33;1.15;;;19.20;32.70;;;;;;5094807;28;20462;-58
2024/01/29 05:35:48;;;;;;;1.63;1.08;;;19.20;32.70;;;;;;5113165;28;20023;-57
2024/01/29 05:38:13;;;;;;;2.33;1.50;;;19.30;32.80;;;;;;5113197;28;20438;-57
2024/01/29 05:40:39;;;;;;;2.60;1.40;;;19.30;32.70;;;;;;5113163;28;20319;-56
2024/01/29 05:43:05;;;;;;;1.70;1.33;;;19.20;32.70;;;;;;5113226;28;20036;-58
2024/01/29 05:45:31;;;;;;;1.90;1.40;;;19.20;32.70;;;;;;5112459;28;20027;-59
2024/01/29 05:47:57;;;;;;;1.85;1.13;;;19.20;32.70;;;;;;5112628;28;20088;-56
2024/01/29 05:50:22;;;;;;;2.08;1.13;;;19.20;32.70;;;;;;5113146;28;20038;-54
2024/01/29 05:52:48;;;;;;;2.08;1.25;;;19.20;32.70;;;;;;5113070;28;20043;-57
2024/01/29 05:55:14;;;;;;;2.45;1.33;;;19.20;32.70;;;;;;5112042;28;20345;-55
2024/01/29 05:57:40;;;;;;;1.55;1.20;;;19.20;32.70;;;;;;5112377;28;20055;-54
2024/01/29 06:00:09;;;;;;;1.98;1.23;;;19.20;32.70;;;;;;5113102;28;20035;-56
2024/01/29 06:02:45;;;;;;;2.55;1.23;;;19.20;32.70;;;;;;5112644;28;20039;-57
2024/01/29 06:05:12;;;;;;;2.95;1.45;;;19.20;32.70;;;;;;5112734;28;20031;-52
2024/01/29 06:07:39;;;;;;;2.50;1.30;;;19.20;32.80;;;;;;5112404;28;20115;-55
2024/01/29 06:10:07;;;;;;;1.50;1.10;;;19.20;32.80;;;;;;5110964;28;20118;-58
2024/01/29 06:12:33;;;;;;;2.28;1.20;;;19.20;32.80;;;;;;5112306;28;20032;-58
2024/01/29 06:14:58;;;;;;;2.20;1.52;;;19.10;32.80;;;;;;5112752;28;20039;-58
2024/01/29 06:17:24;;;;;;;2.15;1.40;;;19.20;32.90;;;;;;5093716;28;20102;-58
2024/01/29 06:19:50;;;;;;;2.22;1.10;;;19.20;32.90;;;;;;5112629;28;20024;-56
2024/01/29 06:22:16;;;;;;;2.08;1.40;;;19.20;32.90;;;;;;5111424;28;20023;-57
2024/01/29 06:24:42;;;;;;;1.50;1.10;;;19.20;32.90;;;;;;5113199;28;20031;-58
2024/01/29 06:27:08;;;;;;;1.67;1.10;;;19.20;32.90;;;;;;5112488;28;20024;-56
2024/01/29 06:29:34;;;;;;;1.90;1.40;;;19.20;33.00;;;;;;5112880;28;20024;-58
2024/01/29 06:32:01;;;;;;;1.90;1.50;;;19.10;32.90;;;;;;5093793;28;20039;-58
2024/01/29 06:34:27;;;;;;;1.98;1.23;;;19.10;33.00;;;;;;5112200;28;20035;-56
2024/01/29 06:36:56;;;;;;;2.13;1.50;;;19.20;33.00;;;;;;5113305;28;20098;-57
2024/01/29 06:39:21;;;;;;;2.90;1.50;;;19.10;33.00;;;;;;5111771;28;20102;-57
2024/01/29 06:41:47;;;;;;;3.17;1.45;;;19.10;33.00;;;;;;5112521;28;20111;-57
2024/01/29 06:44:13;;;;;;;2.53;1.30;;;19.20;33.00;;;;;;5112069;28;20135;-58
2024/01/29 06:46:39;;;;;;;3.38;1.45;;;19.10;33.00;;;;;;5112197;28;20019;-58
2024/01/29 06:49:06;;;;;;;2.17;1.48;;;19.10;33.00;;;;;;5112308;28;20046;-59
2024/01/29 06:51:32;;;;;;;1.73;1.30;;;19.10;33.00;;;;;;5109521;28;20044;-56
2024/01/29 06:54:00;;;;;;;2.53;1.20;;;19.10;33.10;;;;;;5094351;28;20046;-57
2024/01/29 06:56:26;;;;;;;1.80;1.20;;;19.10;33.10;;;;;;5112453;28;20058;-58
2024/01/29 06:58:53;;;;;;;2.28;1.30;;;19.10;33.10;;;;;;5112073;28;20030;-57
2024/01/29 07:01:20;;;;;;;2.15;1.55;;;19.20;33.20;;;;;;5111259;28;20024;-55
2024/01/29 07:03:46;;;;;;;1.63;1.13;;;19.10;33.10;;;;;;5111765;28;20020;-54
2024/01/29 07:06:12;;;;;;;2.38;1.55;;;19.10;33.20;;;;;;5112008;28;20032;-58
2024/01/29 07:08:38;;;;;;;1.58;1.20;;;19.10;33.20;;;;;;5112632;28;20024;-57
2024/01/29 07:11:03;;;;;;;1.75;1.27;;;19.20;33.20;;;;;;5097104;28;20122;-58
2024/01/29 07:13:29;;;;;;;2.15;1.40;;;19.10;33.10;;;;;;5115461;28;20097;-58
2024/01/29 07:15:55;;;;;;;2.25;1.33;;;19.10;33.20;;;;;;5115848;28;20034;-57
2024/01/29 07:18:22;;;;;;;1.75;1.30;;;19.10;33.20;;;;;;5115616;28;20062;-58
2024/01/29 07:20:49;;;;;;;1.95;1.30;;;19.10;33.20;;;;;;5116202;28;20028;-59
2024/01/29 07:23:16;;;;;;;1.83;1.30;;;19.10;33.20;;;;;;5098117;28;20328;-59
2024/01/29 07:25:41;;;;;;;2.58;1.52;;;19.10;33.20;;;;;;5116435;28;20354;-58
2024/01/29 07:28:08;;;;;;;2.05;1.50;;;19.10;33.20;;;;;;5115455;28;20134;-60
2024/01/29 07:30:34;;;;;;;1.85;1.27;;;19.10;33.10;;;;;;5097914;28;20034;-57
2024/01/29 07:33:00;;;;;;;2.28;1.58;;;19.10;33.10;;;;;;5114013;28;20020;-58
2024/01/29 07:35:26;;;;;;;1.83;1.40;;;19.10;33.20;;;;;;5115580;28;20061;-60
2024/01/29 07:37:53;;;;;;;1.13;1.02;;;19.10;33.30;;;;;;5112784;28;20031;-58
2024/01/29 07:40:22;;;;;;;2.47;1.20;;;19.10;33.30;;;;;;5117136;28;20035;-58
2024/01/29 07:42:48;;;;;;;2.30;1.45;;;19.10;33.20;;;;;;5114044;28;20050;-60
2024/01/29 07:45:15;;;;;;;2.17;1.42;;;19.10;33.30;;;;;;5116840;28;20015;-57
2024/01/29 07:47:41;;;;;;;2.40;1.35;;;19.10;33.30;;;;;;5116712;28;20031;-54
2024/01/29 07:50:07;;;;;;;1.98;1.50;;;19.10;33.30;;;;;;5114524;28;20038;-57
2024/01/29 07:52:33;;;;;;;2.42;1.45;;;19.10;33.40;;;;;;5114052;28;20382;-55
2024/01/29 07:54:59;;;;;;;2.10;1.30;;;19.10;33.40;;;;;;5112213;28;20031;-55
2024/01/29 07:57:25;;;;;;;1.75;1.20;;;19.20;33.50;;;;;;5114221;28;20428;-55
2024/01/29 07:59:51;;;;;;;1.70;1.20;;;19.20;33.60;;;;;;5096536;28;20032;-54
2024/01/29 08:02:17;;;;;;;1.85;1.30;;;19.30;33.60;;;;;;5096539;28;20035;-55
2024/01/29 08:04:43;;;;;;;2.08;1.30;;;19.40;33.60;;;;;;5114650;28;20028;-53
2024/01/29 08:07:09;;;;;;;1.75;1.27;;;19.40;33.50;;;;;;5114100;28;20016;-56
2024/01/29 08:09:35;;;;;;;1.75;1.27;;;19.50;33.50;;;;;;5114448;28;20020;-56
2024/01/29 08:12:01;;;;;;;2.10;1.42;;;19.60;33.50;;;;;;5096448;28;20054;-55
2024/01/29 08:14:26;;;;;;;2.53;1.48;;;19.60;33.40;;;;;;5114344;28;20031;-53
2024/01/29 08:16:52;;;;;;;2.58;1.50;;;19.70;33.30;;;;;;5114200;28;20030;-53
2024/01/29 08:19:18;;;;;;;2.10;1.30;;;19.80;33.30;;;;;;5114806;28;20336;-56
2024/01/29 08:21:44;;;;;;;3.03;1.58;;;19.90;33.20;;;;;;5112905;28;20028;-57
2024/01/29 08:24:09;;;;;;;2.10;1.40;;;20.00;33.20;;;;;;5113858;28;20024;-56
2024/01/29 08:26:35;;;;;;;2.60;1.60;;;20.00;33.70;;;;;;5114659;28;20354;-57
2024/01/29 08:29:01;;;;;;;2.20;1.60;;;20.10;33.10;;;;;;5114467;28;20085;-55
2024/01/29 08:31:29;;;;;;;1.60;1.35;;;20.10;33.00;;;;;;5114351;28;20066;-51
2024/01/29 08:33:55;;;;;;;2.70;1.60;;;20.20;33.00;;;;;;5111760;28;20023;-55
2024/01/29 08:36:21;;;;;;;2.60;1.60;;;20.30;33.00;;;;;;5113743;28;20038;-56
2024/01/29 08:38:47;;;;;;;2.47;1.75;;;20.30;32.90;;;;;;5113966;28;20050;-56
2024/01/29 08:41:14;;;;;;;3.03;1.90;;;20.30;32.80;;;;;;5114357;28;20043;-53
2024/01/29 08:43:40;;;;;;;2.95;1.80;;;20.40;32.80;;;;;;5113776;28;20035;-54
2024/01/29 08:46:06;;;;;;;2.83;1.50;;;20.40;32.70;;;;;;5113797;28;20023;-54
2024/01/29 08:48:32;;;;;;;2.28;1.80;;;20.50;32.70;;;;;;5114153;28;20111;-57
2024/01/29 08:50:59;;;;;;;1.92;1.60;;;20.50;32.70;;;;;;5113350;28;20039;-54
2024/01/29 08:53:25;;;;;;;3.33;1.65;;;20.50;32.70;;;;;;5113307;28;20027;-58
2024/01/29 08:55:51;;;;;;;2.97;1.60;;;20.50;32.60;;;;;;5114232;28;20031;-54
2024/01/29 08:58:19;;;;;;;2.03;1.30;;;20.50;32.60;;;;;;5096101;28;20023;-55
2024/01/29 09:00:45;;;;;;;2.05;1.42;;;20.50;32.60;;;;;;5115032;28;20073;-53
2024/01/29 09:03:11;;;;;;;2.63;1.30;;;20.50;32.60;;;;;;5112535;28;20028;-57
2024/01/29 09:05:38;;;;;;;4.38;1.83;;;20.50;32.60;;;;;;5114943;28;20042;-57
2024/01/29 09:08:05;;;;;;;2.83;1.75;;;20.60;32.60;;;;;;5113991;28;20027;-56
2024/01/29 09:10:31;;;;;;;2.38;1.55;;;20.60;32.60;;;;;;5111161;28;20034;-56
2024/01/29 09:12:57;;;;;;;2.42;1.58;;;20.60;32.60;;;;;;5113958;28;20405;-55
2024/01/29 09:15:23;;;;;;;2.83;1.45;;;20.60;32.50;;;;;;5113588;28;20027;-55
2024/01/29 09:17:48;;;;;;;2.47;1.60;;;20.60;32.50;;;;;;5113081;28;20391;-59
2024/01/29 09:20:14;;;;;;;2.60;1.55;;;20.50;32.50;;;;;;5113248;28;20023;-55
2024/01/29 09:22:41;;;;;;;2.25;1.52;;;20.50;32.50;;;;;;5095296;28;20020;-55
2024/01/29 09:25:07;;;;;;;2.25;1.48;;;20.50;32.50;;;;;;5095337;28;20071;-54
2024/01/29 09:27:34;;;;;;;2.28;1.50;;;20.50;32.50;;;;;;5113322;28;20359;-54
2024/01/29 09:30:00;;;;;;;2.95;1.70;;;20.50;32.60;;;;;;5114374;28;20437;-55
2024/01/29 09:32:26;;;;;;;2.58;1.58;;;20.50;32.60;;;;;;5114382;28;20120;-55
2024/01/29 09:34:51;;;;;;;1.90;1.40;;;20.50;32.60;;;;;;5114397;28;20038;-56
2024/01/29 09:37:19;;;;;;;2.05;1.55;;;20.50;32.70;;;;;;5095670;28;20485;-53
2024/01/29 09:39:45;;;;;;;2.80;1.83;;;20.50;33.40;;;;;;5114506;28;20027;-55
2024/01/29 09:42:17;;;;;;;2.10;1.67;;;20.40;32.70;;;;;;5095860;28;20035;-57
2024/01/29 09:44:45;;;;;;;2.63;1.75;;;20.40;32.80;;;;;;5111119;28;20350;-55
2024/01/29 09:47:13;;;;;;;2.58;1.60;;;20.40;32.90;;;;;;5113399;28;20024;-58
2024/01/29 09:49:38;;;;;;;2.50;1.83;;;20.40;32.90;;;;;;5114329;28;20042;-58
2024/01/29 09:52:08;;;;;;;2.30;1.63;;;20.40;33.00;;;;;;5113726;28;20036;-56
2024/01/29 09:54:35;;;;;;;1.80;1.25;;;20.40;33.00;;;;;;5114227;28;20033;-57
2024/01/29 09:57:01;;;;;;;1.92;1.33;;;20.40;33.00;;;;;;5113889;28;20039;-53
2024/01/29 09:59:26;;;;;;;1.83;1.60;;;20.40;33.70;;;;;;5114054;28;20020;-55
2024/01/29 10:01:52;;;;;;;1.88;1.38;;;20.40;33.10;;;;;;5113538;28;20024;-53
2024/01/29 10:04:21;;;;;;;2.28;1.65;;;20.40;33.10;;;;;;5113802;28;20346;-56
2024/01/29 10:06:48;;;;;;;2.05;1.40;;;20.30;33.10;;;;;;5114131;28;20350;-56
2024/01/29 10:09:15;;;;;;;1.63;1.27;;;20.30;33.20;;;;;;5114227;28;20023;-52
2024/01/29 10:11:42;;;;;;;3.80;1.50;;;20.30;33.20;;;;;;5113490;28;20085;-57
2024/01/29 10:14:08;;;;;;;2.53;1.60;;;20.30;33.20;;;;;;5113563;28;20502;-57
2024/01/29 10:16:34;;;;;;;1.83;1.45;;;20.30;33.30;;;;;;5113426;28;20039;-58
2024/01/29 10:19:02;;;;;;;3.75;1.65;;;20.30;33.30;;;;;;5113646;28;20027;-57
2024/01/29 10:21:32;;;;;;;2.00;1.48;;;20.30;33.30;;;;;;5113887;28;20028;-58
2024/01/29 10:23:58;;;;;;;2.90;1.60;;;20.30;33.40;;;;;;5113807;28;20451;-56
2024/01/29 10:26:25;;;;;;;2.13;1.50;;;20.30;33.40;;;;;;5113907;28;20034;-58
2024/01/29 10:29:05;;;;;;;2.55;1.63;;;20.30;33.40;;;;;;5113938;28;20069;-58
2024/01/29 10:31:32;;;;;;;2.00;1.58;;;20.30;33.40;;;;;;5095439;28;20040;-58
2024/01/29 10:34:00;;;;;;;1.50;1.30;;;20.30;33.40;;;;;;5113583;28;20023;-55
2024/01/29 10:36:26;;;;;;;2.30;1.70;;;20.30;33.50;;;;;;5113138;28;20042;-56
2024/01/29 10:38:53;;;;;;;1.73;1.40;;;20.20;33.50;;;;;;5113498;28;20124;-57
2024/01/29 10:41:22;;;;;;;4.00;1.92;;;20.20;33.50;;;;;;5095626;28;20028;-56
2024/01/29 10:43:49;;;;;;;2.17;1.60;;;20.20;33.60;;;;;;5096196;28;20446;-52
2024/01/29 10:46:20;;;;;;;2.35;1.60;;;20.30;33.60;;;;;;5117612;28;20058;-55
2024/01/29 10:48:47;;;;;;;2.58;1.65;;;20.20;33.60;;;;;;5117401;28;20116;-57
2024/01/29 10:51:14;;;;;;;2.33;1.70;;;20.20;33.60;;;;;;5116463;28;20565;-53
2024/01/29 10:53:44;;;;;;;2.38;1.65;;;20.20;33.60;;;;;;5117630;28;20075;-54
2024/01/29 10:56:13;;;;;;;2.22;1.63;;;20.20;33.60;;;;;;5117358;28;20031;-55
2024/01/29 10:58:39;;;;;;;2.95;1.73;;;20.20;33.60;;;;;;5117086;28;20035;-57
2024/01/29 11:01:05;;;;;;;2.35;1.60;;;20.30;33.70;;;;;;5117255;28;20019;-56
2024/01/29 11:03:34;;;;;;;2.70;1.67;;;20.20;33.70;;;;;;5116820;28;20067;-56
2024/01/29 11:06:24;;;;;;;2.53;1.92;;;20.20;33.70;;;;;;5114486;28;20043;-57
2024/01/29 11:09:00;;;;;;;2.05;1.55;;;20.20;33.70;;;;;;5098949;28;20084;-56
2024/01/29 11:11:27;;;;;;;2.55;1.80;;;20.20;33.70;;;;;;5115597;28;20314;-57
2024/01/29 11:13:54;;;;;;;2.10;1.58;;;20.20;33.80;;;;;;5116810;28;20331;-54
2024/01/29 11:16:22;;;;;;;2.50;1.77;;;20.20;33.80;;;;;;5116757;28;20439;-57
2024/01/29 11:18:49;;;;;;;2.25;1.60;;;20.20;33.80;;;;;;5116931;28;20031;-57
2024/01/29 11:21:15;;;;;;;2.13;1.70;;;20.20;33.80;;;;;;5114681;28;20468;-53
2024/01/29 11:23:47;;;;;;;1.98;1.60;;;20.20;33.90;;;;;;5098602;28;20102;-57
2024/01/29 11:26:17;;;;;;;3.22;2.00;;;20.20;33.90;;;;;;5116649;28;20036;-58
2024/01/29 11:28:42;;;;;;;2.28;1.80;;;20.30;34.00;;;;;;5117291;28;20036;-52
2024/01/29 11:31:12;;;;;;;2.85;1.98;;;20.20;34.00;;;;;;5116267;28;20050;-58
2024/01/29 11:33:39;;;;;;;3.00;1.67;;;20.20;34.00;;;;;;5116840;28;20050;-58
2024/01/29 11:36:12;;;;;;;1.88;1.50;;;20.20;34.00;;;;;;5116761;28;20027;-57
2024/01/29 11:38:39;;;;;;;2.17;1.70;;;20.20;34.00;;;;;;5116763;28;20351;-57
2024/01/29 11:41:05;;;;;;;2.58;1.85;;;20.20;34.10;;;;;;5116750;28;20093;-55
2024/01/29 11:43:32;;;;;;;2.80;1.60;;;20.20;34.10;;;;;;5098244;28;20043;-58
2024/01/29 11:45:58;;;;;;;2.55;1.77;;;20.20;34.30;;;;;;5116820;28;20027;-57
2024/01/29 11:48:24;;;;;;;3.03;1.90;;;20.20;34.50;;;;;;5116908;28;20039;-58
2024/01/29 11:50:56;;;;;;;2.65;1.88;;;20.20;34.60;;;;;;5116018;28;20473;-59
2024/01/29 11:53:26;;;;;;;3.88;2.20;;;20.20;34.60;;;;;;5130826;27;20020;-58
2024/01/29 11:55:53;;;;;;;1.95;1.70;;;20.20;34.70;;;;;;5111934;28;20032;-57
2024/01/29 11:58:21;;;;;;;2.22;1.60;;;20.20;34.70;;;;;;5116806;28;20043;-56
2024/01/29 12:00:49;;;;;;;1.83;1.42;;;20.20;34.70;;;;;;5116458;28;20092;-52
2024/01/29 12:03:23;;;;;;;2.72;1.88;;;20.20;34.80;;;;;;5116515;28;20479;-55
2024/01/29 12:05:51;;;;;;;2.30;1.63;;;20.20;34.80;;;;;;5113909;28;20027;-57
2024/01/29 12:08:20;;;;;;;2.72;1.77;;;20.20;34.80;;;;;;5116004;28;20114;-57
2024/01/29 12:10:47;;;;;;;3.30;1.80;;;20.20;34.90;;;;;;5115298;28;20028;-51
2024/01/29 12:13:17;;;;;;;2.47;1.75;;;20.20;35.00;;;;;;5116012;28;20020;-57
2024/01/29 12:15:44;;;;;;;2.45;1.60;;;20.10;35.00;;;;;;5115980;28;20068;-58
2024/01/29 12:18:20;;;;;;;2.53;1.63;;;20.10;35.20;;;;;;5115652;28;20115;-53
2024/01/29 12:20:49;;;;;;;2.20;1.58;;;20.10;35.20;;;;;;5115613;28;20089;-50
2024/01/29 12:23:21;;;;;;;2.17;1.63;;;20.10;35.30;;;;;;5114532;28;20031;-55
2024/01/29 12:25:51;;;;;;;5.30;1.70;;;20.10;35.60;;;;;;5114137;28;20031;-51
2024/01/29 12:28:17;;;;;;;3.03;1.63;;;20.10;35.90;;;;;;5109041;28;20031;-55
2024/01/29 12:30:52;;;;;;;2.60;1.50;;;20.10;35.90;;;;;;5096857;28;20023;-51
2024/01/29 12:33:20;;;;;;;5.63;1.73;;;20.10;36.00;;;;;;5115642;28;20023;-54
2024/01/29 12:35:46;;;;;;;2.53;1.60;;;20.10;36.00;;;;;;5097652;28;20036;-54
2024/01/29 12:38:13;;;;;;;2.92;2.05;;;20.10;36.00;;;;;;5117169;28;20042;-55
2024/01/29 12:40:42;;;;;;;1.60;1.38;;;20.10;36.00;;;;;;5115693;28;20019;-57
2024/01/29 12:43:10;;;;;;;2.00;1.52;;;20.10;36.00;;;;;;5115429;28;20040;-53
2024/01/29 12:45:37;;;;;;;2.85;1.90;;;20.10;36.00;;;;;;5115678;28;20033;-54